sensor_id;sensor_type;location;lat;lon;timestamp;P1;durP1;ratioP1;P2;durP2;ratioP2
43857;SDS011;29507;51.284;5.758;2023-08-21T00:00:22;6.32;;;1.77;;
43857;SDS011;29507;51.284;5.758;2023-08-21T00:02:48;6.05;;;1.70;;
43857;SDS011;29507;51.284;5.758;2023-08-21T00:05:14;7.43;;;2.00;;
43857;SDS011;29507;51.284;5.758;2023-08-21T00:07:39;6.03;;;1.77;;
43857;SDS011;29507;51.284;5.758;2023-08-21T00:10:05;6.15;;;2.15;;
43857;SDS011;29507;51.284;5.758;2023-08-21T00:12:31;6.55;;;2.33;;
43857;SDS011;29507;51.284;5.758;2023-08-21T00:14:57;7.60;;;1.85;;
43857;SDS011;29507;51.284;5.758;2023-08-21T00:17:23;8.13;;;2.72;;
43857;SDS011;29507;51.284;5.758;2023-08-21T00:19:49;8.85;;;1.80;;
43857;SDS011;29507;51.284;5.758;2023-08-21T00:22:14;7.95;;;2.00;;
43857;SDS011;29507;51.284;5.758;2023-08-21T00:24:40;5.47;;;1.98;;
43857;SDS011;29507;51.284;5.758;2023-08-21T00:27:06;10.65;;;2.33;;
43857;SDS011;29507;51.284;5.758;2023-08-21T00:29:31;9.05;;;2.05;;
43857;SDS011;29507;51.284;5.758;2023-08-21T00:31:57;6.25;;;2.03;;
43857;SDS011;29507;51.284;5.758;2023-08-21T00:34:23;4.03;;;1.55;;
43857;SDS011;29507;51.284;5.758;2023-08-21T00:36:48;4.82;;;1.60;;
43857;SDS011;29507;51.284;5.758;2023-08-21T00:39:14;7.20;;;1.88;;
43857;SDS011;29507;51.284;5.758;2023-08-21T00:41:40;7.00;;;1.92;;
43857;SDS011;29507;51.284;5.758;2023-08-21T00:44:05;5.68;;;2.00;;
43857;SDS011;29507;51.284;5.758;2023-08-21T00:46:31;6.15;;;2.13;;
43857;SDS011;29507;51.284;5.758;2023-08-21T00:48:57;5.50;;;2.28;;
43857;SDS011;29507;51.284;5.758;2023-08-21T00:51:23;6.78;;;2.08;;
43857;SDS011;29507;51.284;5.758;2023-08-21T00:53:49;9.00;;;1.80;;
43857;SDS011;29507;51.284;5.758;2023-08-21T00:56:15;4.05;;;1.83;;
43857;SDS011;29507;51.284;5.758;2023-08-21T00:58:41;6.43;;;2.08;;
43857;SDS011;29507;51.284;5.758;2023-08-21T01:01:07;5.20;;;1.77;;
43857;SDS011;29507;51.284;5.758;2023-08-21T01:03:33;7.72;;;2.33;;
43857;SDS011;29507;51.284;5.758;2023-08-21T01:05:58;5.75;;;2.00;;
43857;SDS011;29507;51.284;5.758;2023-08-21T01:08:34;8.82;;;1.88;;
43857;SDS011;29507;51.284;5.758;2023-08-21T01:11:21;11.05;;;3.15;;
43857;SDS011;29507;51.284;5.758;2023-08-21T01:16:49;8.40;;;2.78;;
43857;SDS011;29507;51.284;5.758;2023-08-21T01:19:36;11.60;;;2.10;;
43857;SDS011;29507;51.284;5.758;2023-08-21T01:22:05;10.15;;;3.00;;
43857;SDS011;29507;51.284;5.758;2023-08-21T01:24:31;5.65;;;2.40;;
43857;SDS011;29507;51.284;5.758;2023-08-21T01:26:57;8.63;;;2.15;;
43857;SDS011;29507;51.284;5.758;2023-08-21T01:29:22;6.35;;;2.38;;
43857;SDS011;29507;51.284;5.758;2023-08-21T01:31:53;5.40;;;2.22;;
43857;SDS011;29507;51.284;5.758;2023-08-21T01:34:40;6.00;;;2.35;;
43857;SDS011;29507;51.284;5.758;2023-08-21T01:37:08;7.00;;;2.53;;
43857;SDS011;29507;51.284;5.758;2023-08-21T01:39:34;4.55;;;1.95;;
43857;SDS011;29507;51.284;5.758;2023-08-21T01:42:00;8.68;;;2.72;;
43857;SDS011;29507;51.284;5.758;2023-08-21T01:44:25;7.50;;;2.28;;
43857;SDS011;29507;51.284;5.758;2023-08-21T01:46:51;7.63;;;2.47;;
43857;SDS011;29507;51.284;5.758;2023-08-21T01:49:18;7.68;;;2.70;;
43857;SDS011;29507;51.284;5.758;2023-08-21T01:51:44;5.75;;;2.25;;
43857;SDS011;29507;51.284;5.758;2023-08-21T01:54:10;6.50;;;2.25;;
43857;SDS011;29507;51.284;5.758;2023-08-21T01:56:36;6.60;;;2.83;;
43857;SDS011;29507;51.284;5.758;2023-08-21T01:59:03;8.38;;;2.80;;
43857;SDS011;29507;51.284;5.758;2023-08-21T02:01:29;6.28;;;3.05;;
43857;SDS011;29507;51.284;5.758;2023-08-21T02:03:55;5.10;;;2.55;;
43857;SDS011;29507;51.284;5.758;2023-08-21T02:06:21;6.15;;;3.45;;
43857;SDS011;29507;51.284;5.758;2023-08-21T02:08:48;8.15;;;3.70;;
43857;SDS011;29507;51.284;5.758;2023-08-21T02:11:14;6.75;;;3.28;;
43857;SDS011;29507;51.284;5.758;2023-08-21T02:13:40;10.85;;;3.70;;
43857;SDS011;29507;51.284;5.758;2023-08-21T02:16:05;10.25;;;3.75;;
43857;SDS011;29507;51.284;5.758;2023-08-21T02:18:31;10.98;;;3.63;;
43857;SDS011;29507;51.284;5.758;2023-08-21T02:20:57;6.05;;;3.20;;
43857;SDS011;29507;51.284;5.758;2023-08-21T02:23:23;13.98;;;3.72;;
43857;SDS011;29507;51.284;5.758;2023-08-21T02:25:51;9.13;;;3.42;;
43857;SDS011;29507;51.284;5.758;2023-08-21T02:28:18;7.97;;;2.97;;
43857;SDS011;29507;51.284;5.758;2023-08-21T02:30:44;9.50;;;3.10;;
43857;SDS011;29507;51.284;5.758;2023-08-21T02:33:10;7.32;;;3.45;;
43857;SDS011;29507;51.284;5.758;2023-08-21T02:35:36;7.60;;;3.08;;
43857;SDS011;29507;51.284;5.758;2023-08-21T02:38:02;7.15;;;2.95;;
43857;SDS011;29507;51.284;5.758;2023-08-21T02:40:28;7.35;;;2.83;;
43857;SDS011;29507;51.284;5.758;2023-08-21T02:42:53;7.60;;;3.05;;
43857;SDS011;29507;51.284;5.758;2023-08-21T02:45:19;6.85;;;3.33;;
43857;SDS011;29507;51.284;5.758;2023-08-21T02:47:45;10.70;;;3.20;;
43857;SDS011;29507;51.284;5.758;2023-08-21T02:50:10;6.65;;;2.95;;
43857;SDS011;29507;51.284;5.758;2023-08-21T02:52:36;9.85;;;2.80;;
43857;SDS011;29507;51.284;5.758;2023-08-21T02:55:03;5.93;;;3.20;;
43857;SDS011;29507;51.284;5.758;2023-08-21T02:57:29;8.45;;;2.47;;
43857;SDS011;29507;51.284;5.758;2023-08-21T02:59:55;7.65;;;2.50;;
43857;SDS011;29507;51.284;5.758;2023-08-21T03:02:21;5.70;;;2.58;;
43857;SDS011;29507;51.284;5.758;2023-08-21T03:04:47;8.57;;;2.85;;
43857;SDS011;29507;51.284;5.758;2023-08-21T03:07:14;4.53;;;2.42;;
43857;SDS011;29507;51.284;5.758;2023-08-21T03:09:39;9.48;;;2.65;;
43857;SDS011;29507;51.284;5.758;2023-08-21T03:12:06;9.95;;;3.58;;
43857;SDS011;29507;51.284;5.758;2023-08-21T03:14:32;5.57;;;2.53;;
43857;SDS011;29507;51.284;5.758;2023-08-21T03:16:58;6.57;;;2.63;;
43857;SDS011;29507;51.284;5.758;2023-08-21T03:19:24;5.70;;;2.20;;
43857;SDS011;29507;51.284;5.758;2023-08-21T03:21:50;7.93;;;2.63;;
43857;SDS011;29507;51.284;5.758;2023-08-21T03:24:16;7.00;;;2.33;;
43857;SDS011;29507;51.284;5.758;2023-08-21T03:26:42;6.63;;;2.70;;
43857;SDS011;29507;51.284;5.758;2023-08-21T03:29:08;9.65;;;3.22;;
43857;SDS011;29507;51.284;5.758;2023-08-21T03:31:33;9.50;;;3.58;;
43857;SDS011;29507;51.284;5.758;2023-08-21T03:33:59;8.18;;;2.85;;
43857;SDS011;29507;51.284;5.758;2023-08-21T03:36:24;9.52;;;2.67;;
43857;SDS011;29507;51.284;5.758;2023-08-21T03:38:59;9.57;;;3.60;;
43857;SDS011;29507;51.284;5.758;2023-08-21T03:41:26;12.93;;;4.03;;
43857;SDS011;29507;51.284;5.758;2023-08-21T03:43:52;12.90;;;5.50;;
43857;SDS011;29507;51.284;5.758;2023-08-21T03:46:18;7.30;;;3.63;;
43857;SDS011;29507;51.284;5.758;2023-08-21T03:48:44;7.25;;;3.90;;
43857;SDS011;29507;51.284;5.758;2023-08-21T03:51:10;8.45;;;2.90;;
43857;SDS011;29507;51.284;5.758;2023-08-21T03:53:36;9.15;;;3.60;;
43857;SDS011;29507;51.284;5.758;2023-08-21T03:56:01;5.18;;;2.40;;
43857;SDS011;29507;51.284;5.758;2023-08-21T03:58:27;10.60;;;2.97;;
43857;SDS011;29507;51.284;5.758;2023-08-21T04:00:53;7.90;;;2.60;;
43857;SDS011;29507;51.284;5.758;2023-08-21T04:03:19;6.32;;;3.15;;
43857;SDS011;29507;51.284;5.758;2023-08-21T04:05:45;7.85;;;3.35;;
43857;SDS011;29507;51.284;5.758;2023-08-21T04:08:11;9.55;;;2.50;;
43857;SDS011;29507;51.284;5.758;2023-08-21T04:10:37;4.63;;;2.78;;
43857;SDS011;29507;51.284;5.758;2023-08-21T04:13:07;6.25;;;2.92;;
43857;SDS011;29507;51.284;5.758;2023-08-21T04:15:33;7.03;;;3.25;;
43857;SDS011;29507;51.284;5.758;2023-08-21T04:18:00;5.30;;;2.60;;
43857;SDS011;29507;51.284;5.758;2023-08-21T04:20:26;5.75;;;2.63;;
43857;SDS011;29507;51.284;5.758;2023-08-21T04:22:51;7.15;;;2.90;;
43857;SDS011;29507;51.284;5.758;2023-08-21T04:25:17;9.00;;;2.60;;
43857;SDS011;29507;51.284;5.758;2023-08-21T04:27:43;7.07;;;2.40;;
43857;SDS011;29507;51.284;5.758;2023-08-21T04:30:09;6.18;;;2.13;;
43857;SDS011;29507;51.284;5.758;2023-08-21T04:32:35;6.80;;;2.28;;
43857;SDS011;29507;51.284;5.758;2023-08-21T04:35:01;11.10;;;2.35;;
43857;SDS011;29507;51.284;5.758;2023-08-21T04:37:27;6.85;;;2.00;;
43857;SDS011;29507;51.284;5.758;2023-08-21T04:39:53;10.32;;;2.33;;
43857;SDS011;29507;51.284;5.758;2023-08-21T04:42:19;6.88;;;2.13;;
43857;SDS011;29507;51.284;5.758;2023-08-21T04:44:45;7.53;;;2.20;;
43857;SDS011;29507;51.284;5.758;2023-08-21T04:49:51;5.53;;;2.08;;
43857;SDS011;29507;51.284;5.758;2023-08-21T04:52:17;7.68;;;2.60;;
43857;SDS011;29507;51.284;5.758;2023-08-21T04:54:43;7.57;;;2.85;;
43857;SDS011;29507;51.284;5.758;2023-08-21T04:57:09;5.10;;;2.40;;
43857;SDS011;29507;51.284;5.758;2023-08-21T04:59:35;6.53;;;2.38;;
43857;SDS011;29507;51.284;5.758;2023-08-21T05:02:01;8.98;;;2.45;;
43857;SDS011;29507;51.284;5.758;2023-08-21T05:04:27;7.85;;;2.78;;
43857;SDS011;29507;51.284;5.758;2023-08-21T05:06:53;8.13;;;2.90;;
43857;SDS011;29507;51.284;5.758;2023-08-21T05:09:18;6.97;;;2.50;;
43857;SDS011;29507;51.284;5.758;2023-08-21T05:11:44;8.05;;;2.50;;
43857;SDS011;29507;51.284;5.758;2023-08-21T05:14:10;8.48;;;2.60;;
43857;SDS011;29507;51.284;5.758;2023-08-21T05:16:35;7.85;;;3.78;;
43857;SDS011;29507;51.284;5.758;2023-08-21T05:19:01;7.78;;;2.70;;
43857;SDS011;29507;51.284;5.758;2023-08-21T05:21:27;5.78;;;2.20;;
43857;SDS011;29507;51.284;5.758;2023-08-21T05:23:52;7.10;;;2.40;;
43857;SDS011;29507;51.284;5.758;2023-08-21T05:26:19;5.10;;;2.33;;
43857;SDS011;29507;51.284;5.758;2023-08-21T05:28:44;9.95;;;2.78;;
43857;SDS011;29507;51.284;5.758;2023-08-21T05:31:10;8.07;;;2.50;;
43857;SDS011;29507;51.284;5.758;2023-08-21T05:33:36;5.82;;;2.80;;
43857;SDS011;29507;51.284;5.758;2023-08-21T05:36:01;7.72;;;2.50;;
43857;SDS011;29507;51.284;5.758;2023-08-21T05:38:27;7.53;;;2.72;;
43857;SDS011;29507;51.284;5.758;2023-08-21T05:40:53;9.50;;;3.13;;
43857;SDS011;29507;51.284;5.758;2023-08-21T05:43:18;10.43;;;3.78;;
43857;SDS011;29507;51.284;5.758;2023-08-21T05:45:44;7.38;;;3.17;;
43857;SDS011;29507;51.284;5.758;2023-08-21T05:48:10;6.05;;;3.40;;
43857;SDS011;29507;51.284;5.758;2023-08-21T05:50:36;9.15;;;2.90;;
43857;SDS011;29507;51.284;5.758;2023-08-21T05:53:05;8.40;;;3.45;;
43857;SDS011;29507;51.284;5.758;2023-08-21T05:55:31;8.43;;;3.40;;
43857;SDS011;29507;51.284;5.758;2023-08-21T05:57:57;10.23;;;3.63;;
43857;SDS011;29507;51.284;5.758;2023-08-21T06:00:23;9.57;;;3.08;;
43857;SDS011;29507;51.284;5.758;2023-08-21T06:02:49;8.88;;;3.70;;
43857;SDS011;29507;51.284;5.758;2023-08-21T06:05:15;6.93;;;3.00;;
43857;SDS011;29507;51.284;5.758;2023-08-21T06:07:40;9.20;;;2.97;;
43857;SDS011;29507;51.284;5.758;2023-08-21T06:10:10;9.25;;;4.50;;
43857;SDS011;29507;51.284;5.758;2023-08-21T06:12:37;10.57;;;3.60;;
43857;SDS011;29507;51.284;5.758;2023-08-21T06:15:05;5.90;;;2.75;;
43857;SDS011;29507;51.284;5.758;2023-08-21T06:17:33;7.38;;;3.25;;
43857;SDS011;29507;51.284;5.758;2023-08-21T06:19:58;6.35;;;2.83;;
43857;SDS011;29507;51.284;5.758;2023-08-21T06:22:24;8.13;;;3.65;;
43857;SDS011;29507;51.284;5.758;2023-08-21T06:24:50;9.15;;;3.88;;
43857;SDS011;29507;51.284;5.758;2023-08-21T06:27:16;9.68;;;4.03;;
43857;SDS011;29507;51.284;5.758;2023-08-21T06:29:41;8.27;;;3.35;;
43857;SDS011;29507;51.284;5.758;2023-08-21T06:32:07;8.27;;;3.60;;
43857;SDS011;29507;51.284;5.758;2023-08-21T06:34:33;8.20;;;3.75;;
43857;SDS011;29507;51.284;5.758;2023-08-21T06:36:58;9.55;;;3.83;;
43857;SDS011;29507;51.284;5.758;2023-08-21T06:39:25;10.07;;;4.00;;
43857;SDS011;29507;51.284;5.758;2023-08-21T06:41:51;9.88;;;3.60;;
43857;SDS011;29507;51.284;5.758;2023-08-21T06:44:16;5.95;;;2.67;;
43857;SDS011;29507;51.284;5.758;2023-08-21T06:46:42;8.07;;;3.70;;
43857;SDS011;29507;51.284;5.758;2023-08-21T06:49:08;8.20;;;3.17;;
43857;SDS011;29507;51.284;5.758;2023-08-21T06:51:34;6.07;;;3.22;;
43857;SDS011;29507;51.284;5.758;2023-08-21T06:53:59;7.88;;;3.47;;
43857;SDS011;29507;51.284;5.758;2023-08-21T06:56:25;7.78;;;3.63;;
43857;SDS011;29507;51.284;5.758;2023-08-21T06:58:51;8.35;;;3.80;;
43857;SDS011;29507;51.284;5.758;2023-08-21T07:01:17;10.95;;;4.03;;
43857;SDS011;29507;51.284;5.758;2023-08-21T07:03:42;13.05;;;4.40;;
43857;SDS011;29507;51.284;5.758;2023-08-21T07:06:08;6.68;;;3.33;;
43857;SDS011;29507;51.284;5.758;2023-08-21T07:08:34;9.50;;;4.00;;
43857;SDS011;29507;51.284;5.758;2023-08-21T07:11:02;7.75;;;3.47;;
43857;SDS011;29507;51.284;5.758;2023-08-21T07:13:30;6.47;;;3.47;;
43857;SDS011;29507;51.284;5.758;2023-08-21T07:15:56;7.38;;;3.92;;
43857;SDS011;29507;51.284;5.758;2023-08-21T07:18:22;8.60;;;4.05;;
43857;SDS011;29507;51.284;5.758;2023-08-21T07:20:47;7.32;;;4.40;;
43857;SDS011;29507;51.284;5.758;2023-08-21T07:23:13;8.88;;;3.63;;
43857;SDS011;29507;51.284;5.758;2023-08-21T07:25:39;8.50;;;4.20;;
43857;SDS011;29507;51.284;5.758;2023-08-21T07:28:05;8.57;;;4.10;;
43857;SDS011;29507;51.284;5.758;2023-08-21T07:30:30;7.60;;;3.80;;
43857;SDS011;29507;51.284;5.758;2023-08-21T07:32:56;6.68;;;3.70;;
43857;SDS011;29507;51.284;5.758;2023-08-21T07:35:21;7.65;;;4.00;;
43857;SDS011;29507;51.284;5.758;2023-08-21T07:37:47;8.40;;;3.72;;
43857;SDS011;29507;51.284;5.758;2023-08-21T07:40:13;8.95;;;3.08;;
43857;SDS011;29507;51.284;5.758;2023-08-21T07:42:38;8.68;;;3.00;;
43857;SDS011;29507;51.284;5.758;2023-08-21T07:45:04;10.45;;;2.75;;
43857;SDS011;29507;51.284;5.758;2023-08-21T07:47:31;6.03;;;2.45;;
43857;SDS011;29507;51.284;5.758;2023-08-21T07:49:56;7.38;;;3.05;;
43857;SDS011;29507;51.284;5.758;2023-08-21T07:52:22;8.68;;;3.55;;
43857;SDS011;29507;51.284;5.758;2023-08-21T07:54:52;9.32;;;2.92;;
43857;SDS011;29507;51.284;5.758;2023-08-21T07:57:18;6.10;;;2.95;;
43857;SDS011;29507;51.284;5.758;2023-08-21T07:59:44;6.63;;;2.60;;
43857;SDS011;29507;51.284;5.758;2023-08-21T08:02:09;7.55;;;2.95;;
43857;SDS011;29507;51.284;5.758;2023-08-21T08:04:39;4.22;;;2.60;;
43857;SDS011;29507;51.284;5.758;2023-08-21T08:07:04;8.15;;;3.05;;
43857;SDS011;29507;51.284;5.758;2023-08-21T08:09:30;7.68;;;2.63;;
43857;SDS011;29507;51.284;5.758;2023-08-21T08:11:56;6.82;;;2.92;;
43857;SDS011;29507;51.284;5.758;2023-08-21T08:14:21;7.57;;;2.40;;
43857;SDS011;29507;51.284;5.758;2023-08-21T08:16:47;7.00;;;2.50;;
43857;SDS011;29507;51.284;5.758;2023-08-21T08:19:13;7.82;;;2.88;;
43857;SDS011;29507;51.284;5.758;2023-08-21T08:21:38;7.05;;;2.88;;
43857;SDS011;29507;51.284;5.758;2023-08-21T08:24:04;8.18;;;2.33;;
43857;SDS011;29507;51.284;5.758;2023-08-21T08:26:30;6.95;;;3.08;;
43857;SDS011;29507;51.284;5.758;2023-08-21T08:28:56;8.15;;;2.60;;
43857;SDS011;29507;51.284;5.758;2023-08-21T08:31:21;8.63;;;2.50;;
43857;SDS011;29507;51.284;5.758;2023-08-21T08:33:49;7.10;;;2.03;;
43857;SDS011;29507;51.284;5.758;2023-08-21T08:36:14;6.50;;;2.30;;
43857;SDS011;29507;51.284;5.758;2023-08-21T08:38:40;9.15;;;3.00;;
43857;SDS011;29507;51.284;5.758;2023-08-21T08:44:09;5.40;;;2.20;;
43857;SDS011;29507;51.284;5.758;2023-08-21T08:46:37;9.55;;;3.65;;
43857;SDS011;29507;51.284;5.758;2023-08-21T08:49:03;5.93;;;2.40;;
43857;SDS011;29507;51.284;5.758;2023-08-21T08:51:29;6.32;;;2.80;;
43857;SDS011;29507;51.284;5.758;2023-08-21T08:53:57;7.18;;;2.63;;
43857;SDS011;29507;51.284;5.758;2023-08-21T08:56:24;8.15;;;2.45;;
43857;SDS011;29507;51.284;5.758;2023-08-21T08:58:49;7.38;;;2.50;;
43857;SDS011;29507;51.284;5.758;2023-08-21T09:01:16;4.75;;;2.08;;
43857;SDS011;29507;51.284;5.758;2023-08-21T09:03:41;6.47;;;2.20;;
43857;SDS011;29507;51.284;5.758;2023-08-21T09:06:07;7.10;;;2.42;;
43857;SDS011;29507;51.284;5.758;2023-08-21T09:08:33;7.28;;;2.10;;
43857;SDS011;29507;51.284;5.758;2023-08-21T09:11:01;6.32;;;2.22;;
43857;SDS011;29507;51.284;5.758;2023-08-21T09:13:28;8.80;;;2.60;;
43857;SDS011;29507;51.284;5.758;2023-08-21T09:15:55;4.40;;;1.58;;
43857;SDS011;29507;51.284;5.758;2023-08-21T09:18:21;7.25;;;2.17;;
43857;SDS011;29507;51.284;5.758;2023-08-21T09:20:47;6.32;;;2.50;;
43857;SDS011;29507;51.284;5.758;2023-08-21T09:23:14;6.97;;;2.58;;
43857;SDS011;29507;51.284;5.758;2023-08-21T09:25:41;5.53;;;1.60;;
43857;SDS011;29507;51.284;5.758;2023-08-21T09:28:12;5.97;;;1.30;;
43857;SDS011;29507;51.284;5.758;2023-08-21T09:30:45;4.88;;;0.90;;
43857;SDS011;29507;51.284;5.758;2023-08-21T09:33:18;3.75;;;1.02;;
43857;SDS011;29507;51.284;5.758;2023-08-21T09:35:46;9.18;;;1.20;;
43857;SDS011;29507;51.284;5.758;2023-08-21T09:38:12;5.28;;;1.08;;
43857;SDS011;29507;51.284;5.758;2023-08-21T09:40:42;5.55;;;1.65;;
43857;SDS011;29507;51.284;5.758;2023-08-21T09:43:15;5.07;;;1.23;;
43857;SDS011;29507;51.284;5.758;2023-08-21T09:45:41;4.13;;;1.30;;
43857;SDS011;29507;51.284;5.758;2023-08-21T09:48:15;4.72;;;1.00;;
43857;SDS011;29507;51.284;5.758;2023-08-21T09:50:41;5.38;;;0.88;;
43857;SDS011;29507;51.284;5.758;2023-08-21T09:53:08;5.35;;;1.30;;
43857;SDS011;29507;51.284;5.758;2023-08-21T09:55:34;7.57;;;1.20;;
43857;SDS011;29507;51.284;5.758;2023-08-21T09:58:01;5.05;;;1.17;;
43857;SDS011;29507;51.284;5.758;2023-08-21T10:00:34;5.00;;;0.80;;
43857;SDS011;29507;51.284;5.758;2023-08-21T10:03:07;6.57;;;0.80;;
43857;SDS011;29507;51.284;5.758;2023-08-21T10:05:35;3.08;;;0.70;;
43857;SDS011;29507;51.284;5.758;2023-08-21T10:08:03;5.05;;;1.13;;
43857;SDS011;29507;51.284;5.758;2023-08-21T10:10:30;4.00;;;1.13;;
43857;SDS011;29507;51.284;5.758;2023-08-21T10:12:59;6.55;;;1.40;;
43857;SDS011;29507;51.284;5.758;2023-08-21T10:15:25;6.35;;;1.02;;
43857;SDS011;29507;51.284;5.758;2023-08-21T10:17:55;4.90;;;0.88;;
43857;SDS011;29507;51.284;5.758;2023-08-21T10:20:22;7.25;;;1.20;;
43857;SDS011;29507;51.284;5.758;2023-08-21T10:22:52;5.10;;;1.15;;
43857;SDS011;29507;51.284;5.758;2023-08-21T10:25:22;6.68;;;1.00;;
43857;SDS011;29507;51.284;5.758;2023-08-21T10:27:54;6.45;;;0.95;;
43857;SDS011;29507;51.284;5.758;2023-08-21T10:30:22;3.72;;;0.95;;
43857;SDS011;29507;51.284;5.758;2023-08-21T10:32:50;5.20;;;1.48;;
43857;SDS011;29507;51.284;5.758;2023-08-21T10:35:21;5.50;;;1.17;;
43857;SDS011;29507;51.284;5.758;2023-08-21T10:40:40;2.25;;;0.88;;
43857;SDS011;29507;51.284;5.758;2023-08-21T10:43:36;6.15;;;1.20;;
43857;SDS011;29507;51.284;5.758;2023-08-21T10:46:02;6.70;;;1.13;;
43857;SDS011;29507;51.284;5.758;2023-08-21T10:48:28;4.68;;;0.77;;
43857;SDS011;29507;51.284;5.758;2023-08-21T10:50:53;3.85;;;0.85;;
43857;SDS011;29507;51.284;5.758;2023-08-21T10:53:19;5.70;;;1.35;;
43857;SDS011;29507;51.284;5.758;2023-08-21T10:55:53;6.83;;;1.07;;
43857;SDS011;29507;51.284;5.758;2023-08-21T10:58:19;3.53;;;0.90;;
43857;SDS011;29507;51.284;5.758;2023-08-21T11:00:45;6.28;;;1.38;;
43857;SDS011;29507;51.284;5.758;2023-08-21T11:03:11;4.50;;;0.90;;
43857;SDS011;29507;51.284;5.758;2023-08-21T11:05:36;4.30;;;0.85;;
43857;SDS011;29507;51.284;5.758;2023-08-21T11:08:02;3.50;;;0.70;;
43857;SDS011;29507;51.284;5.758;2023-08-21T11:10:29;4.25;;;0.85;;
43857;SDS011;29507;51.284;5.758;2023-08-21T11:12:57;4.47;;;1.23;;
43857;SDS011;29507;51.284;5.758;2023-08-21T11:15:28;3.75;;;0.88;;
43857;SDS011;29507;51.284;5.758;2023-08-21T11:17:55;4.25;;;0.80;;
43857;SDS011;29507;51.284;5.758;2023-08-21T11:20:21;5.63;;;1.00;;
43857;SDS011;29507;51.284;5.758;2023-08-21T11:22:47;3.30;;;0.70;;
43857;SDS011;29507;51.284;5.758;2023-08-21T11:25:14;3.78;;;0.70;;
43857;SDS011;29507;51.284;5.758;2023-08-21T11:27:41;4.68;;;1.00;;
43857;SDS011;29507;51.284;5.758;2023-08-21T11:30:07;5.40;;;1.05;;
43857;SDS011;29507;51.284;5.758;2023-08-21T11:32:36;6.65;;;0.88;;
43857;SDS011;29507;51.284;5.758;2023-08-21T11:35:02;3.83;;;0.77;;
43857;SDS011;29507;51.284;5.758;2023-08-21T11:37:28;6.18;;;1.13;;
43857;SDS011;29507;51.284;5.758;2023-08-21T11:39:56;5.13;;;0.80;;
43857;SDS011;29507;51.284;5.758;2023-08-21T11:42:29;4.65;;;0.90;;
43857;SDS011;29507;51.284;5.758;2023-08-21T11:44:56;3.83;;;0.90;;
43857;SDS011;29507;51.284;5.758;2023-08-21T11:47:23;6.03;;;1.42;;
43857;SDS011;29507;51.284;5.758;2023-08-21T11:49:49;3.92;;;0.95;;
43857;SDS011;29507;51.284;5.758;2023-08-21T11:52:19;6.65;;;1.33;;
43857;SDS011;29507;51.284;5.758;2023-08-21T11:54:49;6.70;;;1.10;;
43857;SDS011;29507;51.284;5.758;2023-08-21T11:57:16;4.93;;;1.02;;
43857;SDS011;29507;51.284;5.758;2023-08-21T11:59:42;3.63;;;1.25;;
43857;SDS011;29507;51.284;5.758;2023-08-21T12:02:16;4.10;;;0.90;;
43857;SDS011;29507;51.284;5.758;2023-08-21T12:04:43;3.20;;;0.77;;
43857;SDS011;29507;51.284;5.758;2023-08-21T12:07:09;5.15;;;1.20;;
43857;SDS011;29507;51.284;5.758;2023-08-21T12:09:36;5.85;;;0.93;;
43857;SDS011;29507;51.284;5.758;2023-08-21T12:12:01;3.38;;;0.88;;
43857;SDS011;29507;51.284;5.758;2023-08-21T12:14:27;4.32;;;1.35;;
43857;SDS011;29507;51.284;5.758;2023-08-21T12:16:54;2.97;;;0.88;;
43857;SDS011;29507;51.284;5.758;2023-08-21T12:19:21;5.82;;;1.00;;
43857;SDS011;29507;51.284;5.758;2023-08-21T12:21:48;6.18;;;1.00;;
43857;SDS011;29507;51.284;5.758;2023-08-21T12:24:14;4.80;;;0.90;;
43857;SDS011;29507;51.284;5.758;2023-08-21T12:26:39;5.97;;;0.93;;
43857;SDS011;29507;51.284;5.758;2023-08-21T12:29:05;6.13;;;1.35;;
43857;SDS011;29507;51.284;5.758;2023-08-21T12:31:30;5.22;;;1.45;;
43857;SDS011;29507;51.284;5.758;2023-08-21T12:33:56;4.63;;;0.93;;
43857;SDS011;29507;51.284;5.758;2023-08-21T12:36:22;4.47;;;0.98;;
43857;SDS011;29507;51.284;5.758;2023-08-21T12:38:48;3.85;;;0.88;;
43857;SDS011;29507;51.284;5.758;2023-08-21T12:41:14;3.60;;;1.30;;
43857;SDS011;29507;51.284;5.758;2023-08-21T12:43:39;4.90;;;0.98;;
43857;SDS011;29507;51.284;5.758;2023-08-21T12:46:05;4.05;;;1.02;;
43857;SDS011;29507;51.284;5.758;2023-08-21T12:48:30;5.88;;;1.20;;
43857;SDS011;29507;51.284;5.758;2023-08-21T12:50:56;6.43;;;1.85;;
43857;SDS011;29507;51.284;5.758;2023-08-21T12:53:22;2.60;;;0.93;;
43857;SDS011;29507;51.284;5.758;2023-08-21T12:55:48;4.78;;;1.00;;
43857;SDS011;29507;51.284;5.758;2023-08-21T12:58:14;4.45;;;1.15;;
43857;SDS011;29507;51.284;5.758;2023-08-21T13:00:39;4.82;;;0.98;;
43857;SDS011;29507;51.284;5.758;2023-08-21T13:03:05;5.88;;;1.38;;
43857;SDS011;29507;51.284;5.758;2023-08-21T13:05:31;4.50;;;0.93;;
43857;SDS011;29507;51.284;5.758;2023-08-21T13:07:57;7.78;;;1.85;;
43857;SDS011;29507;51.284;5.758;2023-08-21T13:10:22;3.78;;;1.10;;
43857;SDS011;29507;51.284;5.758;2023-08-21T13:12:48;3.75;;;0.82;;
43857;SDS011;29507;51.284;5.758;2023-08-21T13:15:15;5.63;;;1.15;;
43857;SDS011;29507;51.284;5.758;2023-08-21T13:17:41;4.32;;;1.30;;
43857;SDS011;29507;51.284;5.758;2023-08-21T13:20:08;2.60;;;0.90;;
43857;SDS011;29507;51.284;5.758;2023-08-21T13:22:44;5.63;;;1.02;;
43857;SDS011;29507;51.284;5.758;2023-08-21T13:25:14;4.15;;;1.05;;
43857;SDS011;29507;51.284;5.758;2023-08-21T13:27:43;5.07;;;1.00;;
43857;SDS011;29507;51.284;5.758;2023-08-21T13:30:09;6.85;;;1.30;;
43857;SDS011;29507;51.284;5.758;2023-08-21T13:32:35;6.47;;;1.40;;
43857;SDS011;29507;51.284;5.758;2023-08-21T13:35:01;3.65;;;1.13;;
43857;SDS011;29507;51.284;5.758;2023-08-21T13:37:26;6.57;;;1.40;;
43857;SDS011;29507;51.284;5.758;2023-08-21T13:39:52;5.22;;;1.25;;
43857;SDS011;29507;51.284;5.758;2023-08-21T13:42:20;9.47;;;1.77;;
43857;SDS011;29507;51.284;5.758;2023-08-21T13:44:45;5.97;;;1.10;;
43857;SDS011;29507;51.284;5.758;2023-08-21T13:47:11;4.32;;;1.40;;
43857;SDS011;29507;51.284;5.758;2023-08-21T13:49:36;4.18;;;0.90;;
43857;SDS011;29507;51.284;5.758;2023-08-21T13:52:02;3.67;;;1.00;;
43857;SDS011;29507;51.284;5.758;2023-08-21T13:54:28;3.15;;;1.10;;
43857;SDS011;29507;51.284;5.758;2023-08-21T13:56:54;4.68;;;1.10;;
43857;SDS011;29507;51.284;5.758;2023-08-21T13:59:20;4.88;;;1.13;;
43857;SDS011;29507;51.284;5.758;2023-08-21T14:01:46;4.30;;;1.08;;
43857;SDS011;29507;51.284;5.758;2023-08-21T14:04:11;2.72;;;0.88;;
43857;SDS011;29507;51.284;5.758;2023-08-21T14:06:37;5.35;;;1.30;;
43857;SDS011;29507;51.284;5.758;2023-08-21T14:09:02;5.18;;;1.00;;
43857;SDS011;29507;51.284;5.758;2023-08-21T14:11:28;5.95;;;1.40;;
43857;SDS011;29507;51.284;5.758;2023-08-21T14:13:54;5.05;;;1.10;;
43857;SDS011;29507;51.284;5.758;2023-08-21T14:16:19;5.15;;;1.02;;
43857;SDS011;29507;51.284;5.758;2023-08-21T14:18:45;4.07;;;1.23;;
43857;SDS011;29507;51.284;5.758;2023-08-21T14:21:11;4.10;;;1.20;;
43857;SDS011;29507;51.284;5.758;2023-08-21T14:23:36;4.18;;;1.17;;
43857;SDS011;29507;51.284;5.758;2023-08-21T14:26:04;4.07;;;0.90;;
43857;SDS011;29507;51.284;5.758;2023-08-21T14:28:29;4.15;;;1.00;;
43857;SDS011;29507;51.284;5.758;2023-08-21T14:30:55;5.15;;;1.45;;
43857;SDS011;29507;51.284;5.758;2023-08-21T14:33:21;7.32;;;1.38;;
43857;SDS011;29507;51.284;5.758;2023-08-21T14:35:47;3.63;;;1.00;;
43857;SDS011;29507;51.284;5.758;2023-08-21T14:38:13;4.93;;;0.93;;
43857;SDS011;29507;51.284;5.758;2023-08-21T14:40:38;4.72;;;1.00;;
43857;SDS011;29507;51.284;5.758;2023-08-21T14:43:04;4.53;;;1.25;;
43857;SDS011;29507;51.284;5.758;2023-08-21T14:45:30;4.10;;;0.93;;
43857;SDS011;29507;51.284;5.758;2023-08-21T14:47:55;3.00;;;0.95;;
43857;SDS011;29507;51.284;5.758;2023-08-21T14:50:21;2.85;;;0.95;;
43857;SDS011;29507;51.284;5.758;2023-08-21T14:52:47;3.35;;;0.90;;
43857;SDS011;29507;51.284;5.758;2023-08-21T14:55:13;4.10;;;1.08;;